sensor_id;sensor_type;location;lat;lon;timestamp;temperature;humidity
66740;DHT22;53653;52.188;8.602;2023-08-31T00:02:09;12.79;93.09
66740;DHT22;53653;52.188;8.602;2023-08-31T00:04:35;12.76;93.21
66740;DHT22;53653;52.188;8.602;2023-08-31T00:07:00;12.80;92.99
66740;DHT22;53653;52.188;8.602;2023-08-31T00:09:26;12.82;92.74
66740;DHT22;53653;52.188;8.602;2023-08-31T00:11:51;12.83;92.58
66740;DHT22;53653;52.188;8.602;2023-08-31T00:14:17;12.78;92.67
66740;DHT22;53653;52.188;8.602;2023-08-31T00:16:45;12.78;92.61
66740;DHT22;53653;52.188;8.602;2023-08-31T00:19:14;12.72;92.66
66740;DHT22;53653;52.188;8.602;2023-08-31T00:21:40;12.69;92.82
66740;DHT22;53653;52.188;8.602;2023-08-31T00:24:05;12.62;93.12
66740;DHT22;53653;52.188;8.602;2023-08-31T00:26:31;12.56;93.18
66740;DHT22;53653;52.188;8.602;2023-08-31T00:28:57;12.55;93.34
66740;DHT22;53653;52.188;8.602;2023-08-31T00:31:23;12.55;93.25
66740;DHT22;53653;52.188;8.602;2023-08-31T00:33:49;12.51;93.32
66740;DHT22;53653;52.188;8.602;2023-08-31T00:36:25;12.44;93.53
66740;DHT22;53653;52.188;8.602;2023-08-31T00:38:51;12.40;93.65
66740;DHT22;53653;52.188;8.602;2023-08-31T00:41:16;12.49;93.41
66740;DHT22;53653;52.188;8.602;2023-08-31T00:43:42;12.42;93.57
66740;DHT22;53653;52.188;8.602;2023-08-31T00:46:07;12.38;93.76
66740;DHT22;53653;52.188;8.602;2023-08-31T00:48:33;12.34;93.89
66740;DHT22;53653;52.188;8.602;2023-08-31T00:50:59;12.31;93.96
66740;DHT22;53653;52.188;8.602;2023-08-31T00:53:26;12.40;93.65
66740;DHT22;53653;52.188;8.602;2023-08-31T00:55:55;12.42;93.31
66740;DHT22;53653;52.188;8.602;2023-08-31T00:58:21;12.37;93.34
66740;DHT22;53653;52.188;8.602;2023-08-31T01:00:58;12.41;93.18
66740;DHT22;53653;52.188;8.602;2023-08-31T01:03:55;12.28;93.25
66740;DHT22;53653;52.188;8.602;2023-08-31T01:06:33;12.37;93.06
66740;DHT22;53653;52.188;8.602;2023-08-31T01:09:06;12.35;92.97
66740;DHT22;53653;52.188;8.602;2023-08-31T01:14:13;12.34;93.09
66740;DHT22;53653;52.188;8.602;2023-08-31T01:16:43;12.32;93.13
66740;DHT22;53653;52.188;8.602;2023-08-31T01:22:02;12.44;93.05
66740;DHT22;53653;52.188;8.602;2023-08-31T01:24:29;12.45;93.09
66740;DHT22;53653;52.188;8.602;2023-08-31T01:26:56;12.41;93.21
66740;DHT22;53653;52.188;8.602;2023-08-31T01:29:22;12.38;93.29
66740;DHT22;53653;52.188;8.602;2023-08-31T01:31:48;12.40;93.37
66740;DHT22;53653;52.188;8.602;2023-08-31T01:34:13;12.44;93.22
66740;DHT22;53653;52.188;8.602;2023-08-31T01:36:43;12.42;93.33
66740;DHT22;53653;52.188;8.602;2023-08-31T01:39:24;12.46;93.03
66740;DHT22;53653;52.188;8.602;2023-08-31T01:41:55;12.55;92.82
66740;DHT22;53653;52.188;8.602;2023-08-31T01:44:22;12.56;92.66
66740;DHT22;53653;52.188;8.602;2023-08-31T01:46:52;12.56;92.57
66740;DHT22;53653;52.188;8.602;2023-08-31T01:49:22;12.55;92.55
66740;DHT22;53653;52.188;8.602;2023-08-31T01:51:49;12.55;92.47
66740;DHT22;53653;52.188;8.602;2023-08-31T01:54:14;12.53;92.26
66740;DHT22;53653;52.188;8.602;2023-08-31T01:56:40;12.51;92.49
66740;DHT22;53653;52.188;8.602;2023-08-31T01:59:05;12.53;92.29
66740;DHT22;53653;52.188;8.602;2023-08-31T02:01:35;12.55;92.24
66740;DHT22;53653;52.188;8.602;2023-08-31T02:04:01;12.58;91.95
66740;DHT22;53653;52.188;8.602;2023-08-31T02:06:26;12.55;92.16
66740;DHT22;53653;52.188;8.602;2023-08-31T02:08:52;12.55;92.32
66740;DHT22;53653;52.188;8.602;2023-08-31T02:11:17;12.52;92.42
66740;DHT22;53653;52.188;8.602;2023-08-31T02:13:43;12.52;92.41
66740;DHT22;53653;52.188;8.602;2023-08-31T02:16:08;12.51;92.43
66740;DHT22;53653;52.188;8.602;2023-08-31T02:18:35;12.44;92.41
66740;DHT22;53653;52.188;8.602;2023-08-31T02:21:00;12.42;92.33
66740;DHT22;53653;52.188;8.602;2023-08-31T02:23:26;12.38;92.39
66740;DHT22;53653;52.188;8.602;2023-08-31T02:25:51;12.38;92.20
66740;DHT22;53653;52.188;8.602;2023-08-31T02:28:17;12.40;92.28
66740;DHT22;53653;52.188;8.602;2023-08-31T02:30:45;12.27;92.38
66740;DHT22;53653;52.188;8.602;2023-08-31T02:33:11;12.20;92.83
66740;DHT22;53653;52.188;8.602;2023-08-31T02:35:36;12.16;93.02
66740;DHT22;53653;52.188;8.602;2023-08-31T02:38:03;12.13;93.09
66740;DHT22;53653;52.188;8.602;2023-08-31T02:40:29;12.04;93.24
66740;DHT22;53653;52.188;8.602;2023-08-31T02:42:54;12.08;93.11
66740;DHT22;53653;52.188;8.602;2023-08-31T02:45:20;12.00;93.21
66740;DHT22;53653;52.188;8.602;2023-08-31T02:47:45;12.00;93.24
66740;DHT22;53653;52.188;8.602;2023-08-31T02:50:11;12.03;93.09
66740;DHT22;53653;52.188;8.602;2023-08-31T02:52:37;12.01;93.13
66740;DHT22;53653;52.188;8.602;2023-08-31T02:55:02;12.00;93.12
66740;DHT22;53653;52.188;8.602;2023-08-31T02:57:28;11.97;92.98
66740;DHT22;53653;52.188;8.602;2023-08-31T02:59:53;11.97;92.94
66740;DHT22;53653;52.188;8.602;2023-08-31T03:02:19;11.94;92.92
66740;DHT22;53653;52.188;8.602;2023-08-31T03:04:45;11.98;92.94
66740;DHT22;53653;52.188;8.602;2023-08-31T03:07:10;11.89;93.19
66740;DHT22;53653;52.188;8.602;2023-08-31T03:09:39;11.86;93.36
66740;DHT22;53653;52.188;8.602;2023-08-31T03:12:05;11.86;93.42
66740;DHT22;53653;52.188;8.602;2023-08-31T03:14:30;11.87;93.31
66740;DHT22;53653;52.188;8.602;2023-08-31T03:16:56;11.86;93.23
66740;DHT22;53653;52.188;8.602;2023-08-31T03:19:21;11.82;93.21
66740;DHT22;53653;52.188;8.602;2023-08-31T03:21:47;11.83;93.13
66740;DHT22;53653;52.188;8.602;2023-08-31T03:24:14;11.79;93.19
66740;DHT22;53653;52.188;8.602;2023-08-31T03:26:39;11.75;93.30
66740;DHT22;53653;52.188;8.602;2023-08-31T03:29:04;11.72;93.52
66740;DHT22;53653;52.188;8.602;2023-08-31T03:31:30;11.79;93.43
66740;DHT22;53653;52.188;8.602;2023-08-31T03:33:56;11.79;93.35
66740;DHT22;53653;52.188;8.602;2023-08-31T03:36:22;11.77;93.39
66740;DHT22;53653;52.188;8.602;2023-08-31T03:38:49;11.75;93.50
66740;DHT22;53653;52.188;8.602;2023-08-31T03:41:14;11.73;93.67
66740;DHT22;53653;52.188;8.602;2023-08-31T03:43:40;11.73;93.88
66740;DHT22;53653;52.188;8.602;2023-08-31T03:46:05;11.76;93.73
66740;DHT22;53653;52.188;8.602;2023-08-31T03:48:31;11.77;93.71
66740;DHT22;53653;52.188;8.602;2023-08-31T03:50:56;11.76;93.67
66740;DHT22;53653;52.188;8.602;2023-08-31T03:53:22;11.76;93.63
66740;DHT22;53653;52.188;8.602;2023-08-31T03:55:50;11.75;93.58
66740;DHT22;53653;52.188;8.602;2023-08-31T03:58:16;11.70;93.71
66740;DHT22;53653;52.188;8.602;2023-08-31T04:00:49;11.70;93.71
66740;DHT22;53653;52.188;8.602;2023-08-31T04:03:15;11.67;93.82
66740;DHT22;53653;52.188;8.602;2023-08-31T04:05:40;11.69;93.73
66740;DHT22;53653;52.188;8.602;2023-08-31T04:08:06;11.66;93.67
66740;DHT22;53653;52.188;8.602;2023-08-31T04:10:34;11.66;93.73
66740;DHT22;53653;52.188;8.602;2023-08-31T04:12:59;11.58;93.83
66740;DHT22;53653;52.188;8.602;2023-08-31T04:15:27;11.61;93.93
66740;DHT22;53653;52.188;8.602;2023-08-31T04:17:52;11.65;93.46
66740;DHT22;53653;52.188;8.602;2023-08-31T04:20:18;11.66;93.32
66740;DHT22;53653;52.188;8.602;2023-08-31T04:22:43;11.65;93.22
66740;DHT22;53653;52.188;8.602;2023-08-31T04:25:08;11.66;93.21
66740;DHT22;53653;52.188;8.602;2023-08-31T04:27:34;11.65;93.14
66740;DHT22;53653;52.188;8.602;2023-08-31T04:30:03;11.61;93.47
66740;DHT22;53653;52.188;8.602;2023-08-31T04:32:28;11.69;93.02
66740;DHT22;53653;52.188;8.602;2023-08-31T04:34:54;11.80;92.60
66740;DHT22;53653;52.188;8.602;2023-08-31T04:37:21;11.70;92.99
66740;DHT22;53653;52.188;8.602;2023-08-31T04:39:46;11.77;92.99
66740;DHT22;53653;52.188;8.602;2023-08-31T04:42:11;11.84;92.88
66740;DHT22;53653;52.188;8.602;2023-08-31T04:44:37;11.89;93.07
66740;DHT22;53653;52.188;8.602;2023-08-31T04:47:02;11.95;92.89
66740;DHT22;53653;52.188;8.602;2023-08-31T04:49:28;12.04;92.86
66740;DHT22;53653;52.188;8.602;2023-08-31T04:51:53;12.08;92.61
66740;DHT22;53653;52.188;8.602;2023-08-31T04:54:19;12.17;92.54
66740;DHT22;53653;52.188;8.602;2023-08-31T04:56:44;12.14;92.67
66740;DHT22;53653;52.188;8.602;2023-08-31T04:59:10;12.24;92.34
66740;DHT22;53653;52.188;8.602;2023-08-31T05:01:35;12.30;92.09
66740;DHT22;53653;52.188;8.602;2023-08-31T05:04:02;12.32;91.90
66740;DHT22;53653;52.188;8.602;2023-08-31T05:06:28;12.34;91.75
66740;DHT22;53653;52.188;8.602;2023-08-31T05:08:56;12.30;91.91
66740;DHT22;53653;52.188;8.602;2023-08-31T05:11:22;12.37;91.76
66740;DHT22;53653;52.188;8.602;2023-08-31T05:13:47;12.41;91.45
66740;DHT22;53653;52.188;8.602;2023-08-31T05:16:13;12.40;91.53
66740;DHT22;53653;52.188;8.602;2023-08-31T05:18:39;12.40;91.87
66740;DHT22;53653;52.188;8.602;2023-08-31T05:21:05;12.41;91.81
66740;DHT22;53653;52.188;8.602;2023-08-31T05:23:31;12.37;91.81
66740;DHT22;53653;52.188;8.602;2023-08-31T05:25:57;12.52;91.47
66740;DHT22;53653;52.188;8.602;2023-08-31T05:28:23;12.45;91.83
66740;DHT22;53653;52.188;8.602;2023-08-31T05:30:52;12.49;91.55
66740;DHT22;53653;52.188;8.602;2023-08-31T05:33:18;12.51;91.52
66740;DHT22;53653;52.188;8.602;2023-08-31T05:35:44;12.51;91.68
66740;DHT22;53653;52.188;8.602;2023-08-31T05:38:10;12.49;91.88
66740;DHT22;53653;52.188;8.602;2023-08-31T05:40:35;12.51;92.04
66740;DHT22;53653;52.188;8.602;2023-08-31T05:43:01;12.52;91.81
66740;DHT22;53653;52.188;8.602;2023-08-31T05:45:31;12.51;91.99
66740;DHT22;53653;52.188;8.602;2023-08-31T05:47:56;12.55;91.64
66740;DHT22;53653;52.188;8.602;2023-08-31T05:50:22;12.55;91.58
66740;DHT22;53653;52.188;8.602;2023-08-31T05:52:47;12.52;91.82
66740;DHT22;53653;52.188;8.602;2023-08-31T05:55:13;12.53;92.09
66740;DHT22;53653;52.188;8.602;2023-08-31T05:57:38;12.55;91.82
66740;DHT22;53653;52.188;8.602;2023-08-31T06:00:05;12.59;91.87
66740;DHT22;53653;52.188;8.602;2023-08-31T06:02:38;12.55;92.12
66740;DHT22;53653;52.188;8.602;2023-08-31T06:05:03;12.63;91.93
66740;DHT22;53653;52.188;8.602;2023-08-31T06:07:29;12.66;91.54
66740;DHT22;53653;52.188;8.602;2023-08-31T06:09:56;12.78;90.99
66740;DHT22;53653;52.188;8.602;2023-08-31T06:12:21;12.88;90.77
66740;DHT22;53653;52.188;8.602;2023-08-31T06:14:47;12.89;90.77
66740;DHT22;53653;52.188;8.602;2023-08-31T06:17:12;12.78;91.16
66740;DHT22;53653;52.188;8.602;2023-08-31T06:19:39;12.89;90.76
66740;DHT22;53653;52.188;8.602;2023-08-31T06:22:04;12.88;90.68
66740;DHT22;53653;52.188;8.602;2023-08-31T06:24:29;12.82;90.77
66740;DHT22;53653;52.188;8.602;2023-08-31T06:26:55;12.80;91.02
66740;DHT22;53653;52.188;8.602;2023-08-31T06:29:22;12.85;90.67
66740;DHT22;53653;52.188;8.602;2023-08-31T06:31:47;12.79;90.93
66740;DHT22;53653;52.188;8.602;2023-08-31T06:34:13;12.89;90.76
66740;DHT22;53653;52.188;8.602;2023-08-31T06:36:38;12.79;91.30
66740;DHT22;53653;52.188;8.602;2023-08-31T06:39:05;12.80;90.76
66740;DHT22;53653;52.188;8.602;2023-08-31T06:41:31;12.79;90.64
66740;DHT22;53653;52.188;8.602;2023-08-31T06:43:56;12.82;90.79
66740;DHT22;53653;52.188;8.602;2023-08-31T06:46:22;12.97;90.15
66740;DHT22;53653;52.188;8.602;2023-08-31T06:48:47;12.99;89.88
66740;DHT22;53653;52.188;8.602;2023-08-31T06:51:14;13.10;89.86
66740;DHT22;53653;52.188;8.602;2023-08-31T06:53:41;13.20;89.38
66740;DHT22;53653;52.188;8.602;2023-08-31T06:56:07;13.19;88.76
66740;DHT22;53653;52.188;8.602;2023-08-31T06:58:32;13.31;88.86
66740;DHT22;53653;52.188;8.602;2023-08-31T07:00:58;13.30;88.52
66740;DHT22;53653;52.188;8.602;2023-08-31T07:03:24;13.21;88.11
66740;DHT22;53653;52.188;8.602;2023-08-31T07:05:50;13.26;88.54
66740;DHT22;53653;52.188;8.602;2023-08-31T07:08:15;13.19;87.99
66740;DHT22;53653;52.188;8.602;2023-08-31T07:10:40;13.14;88.35
66740;DHT22;53653;52.188;8.602;2023-08-31T07:13:06;13.10;88.71
66740;DHT22;53653;52.188;8.602;2023-08-31T07:15:32;13.13;88.57
66740;DHT22;53653;52.188;8.602;2023-08-31T07:17:57;13.19;88.58
66740;DHT22;53653;52.188;8.602;2023-08-31T07:20:23;13.14;88.67
66740;DHT22;53653;52.188;8.602;2023-08-31T07:22:48;13.17;88.39
66740;DHT22;53653;52.188;8.602;2023-08-31T07:25:14;13.24;87.91
66740;DHT22;53653;52.188;8.602;2023-08-31T07:27:39;13.20;88.32
66740;DHT22;53653;52.188;8.602;2023-08-31T07:30:05;13.28;87.94
66740;DHT22;53653;52.188;8.602;2023-08-31T07:32:32;13.30;88.24
66740;DHT22;53653;52.188;8.602;2023-08-31T07:34:58;13.34;88.43
66740;DHT22;53653;52.188;8.602;2023-08-31T07:37:23;13.31;87.92
66740;DHT22;53653;52.188;8.602;2023-08-31T07:39:49;13.38;87.87
66740;DHT22;53653;52.188;8.602;2023-08-31T07:42:15;13.46;87.86
66740;DHT22;53653;52.188;8.602;2023-08-31T07:44:40;13.51;87.77
66740;DHT22;53653;52.188;8.602;2023-08-31T07:47:07;13.62;87.59
66740;DHT22;53653;52.188;8.602;2023-08-31T07:49:33;13.65;87.04
66740;DHT22;53653;52.188;8.602;2023-08-31T07:51:59;13.75;86.65
66740;DHT22;53653;52.188;8.602;2023-08-31T07:54:24;13.88;86.27
66740;DHT22;53653;52.188;8.602;2023-08-31T07:56:51;13.94;86.49
66740;DHT22;53653;52.188;8.602;2023-08-31T07:59:17;13.94;85.76
66740;DHT22;53653;52.188;8.602;2023-08-31T08:01:44;13.90;85.39
66740;DHT22;53653;52.188;8.602;2023-08-31T08:04:11;13.81;85.99
66740;DHT22;53653;52.188;8.602;2023-08-31T08:06:37;13.83;86.39
66740;DHT22;53653;52.188;8.602;2023-08-31T08:09:03;13.99;86.29
66740;DHT22;53653;52.188;8.602;2023-08-31T08:11:30;14.04;85.65
66740;DHT22;53653;52.188;8.602;2023-08-31T08:13:56;14.05;85.76
66740;DHT22;53653;52.188;8.602;2023-08-31T08:16:22;14.12;85.82
66740;DHT22;53653;52.188;8.602;2023-08-31T08:18:49;14.40;84.78
66740;DHT22;53653;52.188;8.602;2023-08-31T08:21:15;15.08;82.85
66740;DHT22;53653;52.188;8.602;2023-08-31T08:23:41;15.02;82.49
66740;DHT22;53653;52.188;8.602;2023-08-31T08:26:06;14.85;83.27
66740;DHT22;53653;52.188;8.602;2023-08-31T08:28:32;14.81;83.70
66740;DHT22;53653;52.188;8.602;2023-08-31T08:31:03;14.84;83.17
66740;DHT22;53653;52.188;8.602;2023-08-31T08:33:30;14.98;83.23
66740;DHT22;53653;52.188;8.602;2023-08-31T08:35:56;15.40;81.87
66740;DHT22;53653;52.188;8.602;2023-08-31T08:38:22;15.53;81.39
66740;DHT22;53653;52.188;8.602;2023-08-31T08:40:48;15.31;81.39
66740;DHT22;53653;52.188;8.602;2023-08-31T08:43:14;15.35;81.61
66740;DHT22;53653;52.188;8.602;2023-08-31T08:45:39;15.46;81.50
66740;DHT22;53653;52.188;8.602;2023-08-31T08:48:08;15.46;80.34
66740;DHT22;53653;52.188;8.602;2023-08-31T08:50:35;15.40;80.79
66740;DHT22;53653;52.188;8.602;2023-08-31T08:53:05;15.38;80.68
66740;DHT22;53653;52.188;8.602;2023-08-31T08:55:32;15.36;81.31
66740;DHT22;53653;52.188;8.602;2023-08-31T08:57:58;15.38;81.74
66740;DHT22;53653;52.188;8.602;2023-08-31T09:00:29;15.28;80.41
66740;DHT22;53653;52.188;8.602;2023-08-31T09:02:55;15.05;80.67
66740;DHT22;53653;52.188;8.602;2023-08-31T09:05:22;14.98;80.65
66740;DHT22;53653;52.188;8.602;2023-08-31T09:08:14;15.23;80.78
66740;DHT22;53653;52.188;8.602;2023-08-31T09:10:43;15.36;80.74
66740;DHT22;53653;52.188;8.602;2023-08-31T09:13:13;15.40;80.36
66740;DHT22;53653;52.188;8.602;2023-08-31T09:15:44;15.67;78.43
66740;DHT22;53653;52.188;8.602;2023-08-31T09:18:15;15.76;78.82
66740;DHT22;53653;52.188;8.602;2023-08-31T09:20:45;15.86;78.89
66740;DHT22;53653;52.188;8.602;2023-08-31T09:23:12;15.69;78.15
66740;DHT22;53653;52.188;8.602;2023-08-31T09:25:42;15.84;78.43
66740;DHT22;53653;52.188;8.602;2023-08-31T09:28:09;15.86;78.16
66740;DHT22;53653;52.188;8.602;2023-08-31T09:30:38;15.86;78.03
66740;DHT22;53653;52.188;8.602;2023-08-31T09:33:07;16.14;77.95
66740;DHT22;53653;52.188;8.602;2023-08-31T09:35:34;16.31;77.17
66740;DHT22;53653;52.188;8.602;2023-08-31T09:38:03;17.03;75.16
66740;DHT22;53653;52.188;8.602;2023-08-31T09:40:32;16.53;76.32
66740;DHT22;53653;52.188;8.602;2023-08-31T09:42:58;16.77;75.38
66740;DHT22;53653;52.188;8.602;2023-08-31T09:45:31;16.51;75.83
66740;DHT22;53653;52.188;8.602;2023-08-31T09:47:59;16.65;76.03
66740;DHT22;53653;52.188;8.602;2023-08-31T09:50:29;16.90;74.72
66740;DHT22;53653;52.188;8.602;2023-08-31T09:53:02;16.58;74.47
66740;DHT22;53653;52.188;8.602;2023-08-31T09:55:30;16.81;74.41
66740;DHT22;53653;52.188;8.602;2023-08-31T09:58:00;17.30;73.41
66740;DHT22;53653;52.188;8.602;2023-08-31T10:00:27;17.66;71.38
66740;DHT22;53653;52.188;8.602;2023-08-31T10:02:56;17.55;71.51
66740;DHT22;53653;52.188;8.602;2023-08-31T10:05:23;17.96;71.35
66740;DHT22;53653;52.188;8.602;2023-08-31T10:07:50;17.59;71.47
66740;DHT22;53653;52.188;8.602;2023-08-31T10:10:16;17.04;72.51
66740;DHT22;53653;52.188;8.602;2023-08-31T10:12:42;17.07;73.74
66740;DHT22;53653;52.188;8.602;2023-08-31T10:15:10;17.11;73.26
66740;DHT22;53653;52.188;8.602;2023-08-31T10:17:36;16.91;74.25
66740;DHT22;53653;52.188;8.602;2023-08-31T10:20:03;16.84;74.04
66740;DHT22;53653;52.188;8.602;2023-08-31T10:22:29;17.96;71.96
66740;DHT22;53653;52.188;8.602;2023-08-31T10:25:03;18.60;68.30
66740;DHT22;53653;52.188;8.602;2023-08-31T10:27:43;19.16;65.81
66740;DHT22;53653;52.188;8.602;2023-08-31T10:36:02;19.10;64.45
66740;DHT22;53653;52.188;8.602;2023-08-31T10:38:32;18.33;67.77
66740;DHT22;53653;52.188;8.602;2023-08-31T10:43:55;17.52;69.65
66740;DHT22;53653;52.188;8.602;2023-08-31T10:46:35;18.41;67.52
66740;DHT22;53653;52.188;8.602;2023-08-31T10:51:41;17.20;70.67
66740;DHT22;53653;52.188;8.602;2023-08-31T10:54:13;17.00;72.20
66740;DHT22;53653;52.188;8.602;2023-08-31T10:59:23;16.81;72.42
66740;DHT22;53653;52.188;8.602;2023-08-31T11:02:00;16.59;73.30
66740;DHT22;53653;52.188;8.602;2023-08-31T11:04:29;16.49;74.92
66740;DHT22;53653;52.188;8.602;2023-08-31T11:09:38;16.47;76.51
66740;DHT22;53653;52.188;8.602;2023-08-31T11:12:03;16.26;77.94
66740;DHT22;53653;52.188;8.602;2023-08-31T11:14:29;16.20;78.81
66740;DHT22;53653;52.188;8.602;2023-08-31T11:16:55;16.59;78.32
66740;DHT22;53653;52.188;8.602;2023-08-31T11:19:21;17.39;76.62
66740;DHT22;53653;52.188;8.602;2023-08-31T11:21:47;17.99;74.38
66740;DHT22;53653;52.188;8.602;2023-08-31T11:24:13;18.43;72.78
66740;DHT22;53653;52.188;8.602;2023-08-31T11:26:39;18.85;71.31
66740;DHT22;53653;52.188;8.602;2023-08-31T11:29:08;18.84;70.78
66740;DHT22;53653;52.188;8.602;2023-08-31T11:31:39;18.40;72.32
66740;DHT22;53653;52.188;8.602;2023-08-31T11:34:06;18.16;73.37
66740;DHT22;53653;52.188;8.602;2023-08-31T11:36:32;17.96;73.40
66740;DHT22;53653;52.188;8.602;2023-08-31T11:38:58;17.76;74.82
66740;DHT22;53653;52.188;8.602;2023-08-31T11:41:24;17.76;75.84
66740;DHT22;53653;52.188;8.602;2023-08-31T11:43:50;18.58;74.30
66740;DHT22;53653;52.188;8.602;2023-08-31T11:46:16;18.87;71.42
66740;DHT22;53653;52.188;8.602;2023-08-31T11:48:43;19.09;70.80
66740;DHT22;53653;52.188;8.602;2023-08-31T11:51:11;18.54;70.22
66740;DHT22;53653;52.188;8.602;2023-08-31T11:53:37;18.14;70.50
66740;DHT22;53653;52.188;8.602;2023-08-31T11:56:03;17.71;70.61
66740;DHT22;53653;52.188;8.602;2023-08-31T11:58:28;17.23;69.23
66740;DHT22;53653;52.188;8.602;2023-08-31T12:00:56;16.58;69.47
66740;DHT22;53653;52.188;8.602;2023-08-31T12:03:22;16.32;73.25
66740;DHT22;53653;52.188;8.602;2023-08-31T12:05:50;16.07;75.18
66740;DHT22;53653;52.188;8.602;2023-08-31T12:08:23;15.84;76.39
66740;DHT22;53653;52.188;8.602;2023-08-31T12:10:49;15.79;77.13
66740;DHT22;53653;52.188;8.602;2023-08-31T12:13:14;15.74;78.38
66740;DHT22;53653;52.188;8.602;2023-08-31T12:15:40;15.73;78.63
66740;DHT22;53653;52.188;8.602;2023-08-31T12:18:14;15.70;78.88
66740;DHT22;53653;52.188;8.602;2023-08-31T12:20:47;15.62;79.26
66740;DHT22;53653;52.188;8.602;2023-08-31T12:23:13;15.47;80.15
66740;DHT22;53653;52.188;8.602;2023-08-31T12:26:00;15.40;81.45
66740;DHT22;53653;52.188;8.602;2023-08-31T12:28:26;15.23;82.59
66740;DHT22;53653;52.188;8.602;2023-08-31T12:30:53;15.15;83.72
66740;DHT22;53653;52.188;8.602;2023-08-31T12:33:20;15.11;84.44
66740;DHT22;53653;52.188;8.602;2023-08-31T12:35:46;15.19;84.36
66740;DHT22;53653;52.188;8.602;2023-08-31T12:38:12;15.25;84.71
66740;DHT22;53653;52.188;8.602;2023-08-31T12:40:38;15.39;84.49
66740;DHT22;53653;52.188;8.602;2023-08-31T12:43:07;15.60;84.28
66740;DHT22;53653;52.188;8.602;2023-08-31T12:45:33;15.84;83.42
66740;DHT22;53653;52.188;8.602;2023-08-31T12:47:59;16.26;82.36
66740;DHT22;53653;52.188;8.602;2023-08-31T12:50:25;16.70;82.71
66740;DHT22;53653;52.188;8.602;2023-08-31T12:52:51;16.77;80.79
66740;DHT22;53653;52.188;8.602;2023-08-31T12:55:16;16.96;79.26
66740;DHT22;53653;52.188;8.602;2023-08-31T12:57:43;17.28;79.18
66740;DHT22;53653;52.188;8.602;2023-08-31T13:00:10;17.49;77.78
66740;DHT22;53653;52.188;8.602;2023-08-31T13:02:40;17.62;77.75
66740;DHT22;53653;52.188;8.602;2023-08-31T13:05:06;17.78;77.78
66740;DHT22;53653;52.188;8.602;2023-08-31T13:07:35;17.83;77.54
66740;DHT22;53653;52.188;8.602;2023-08-31T13:10:01;17.87;76.96
66740;DHT22;53653;52.188;8.602;2023-08-31T13:12:32;17.95;76.23
66740;DHT22;53653;52.188;8.602;2023-08-31T13:14:58;17.82;75.69
66740;DHT22;53653;52.188;8.602;2023-08-31T13:17:24;17.82;76.43
66740;DHT22;53653;52.188;8.602;2023-08-31T13:19:54;17.82;77.60
66740;DHT22;53653;52.188;8.602;2023-08-31T13:22:21;17.83;76.94
66740;DHT22;53653;52.188;8.602;2023-08-31T13:24:46;17.71;78.68
66740;DHT22;53653;52.188;8.602;2023-08-31T13:27:12;17.79;77.68
66740;DHT22;53653;52.188;8.602;2023-08-31T13:29:39;17.54;79.60
66740;DHT22;53653;52.188;8.602;2023-08-31T13:32:05;17.03;80.82
66740;DHT22;53653;52.188;8.602;2023-08-31T13:34:31;17.10;80.07
66740;DHT22;53653;52.188;8.602;2023-08-31T13:36:56;16.97;78.74
66740;DHT22;53653;52.188;8.602;2023-08-31T13:39:22;16.96;77.25
66740;DHT22;53653;52.188;8.602;2023-08-31T13:41:50;16.86;76.69
66740;DHT22;53653;52.188;8.602;2023-08-31T13:44:17;16.69;77.72
66740;DHT22;53653;52.188;8.602;2023-08-31T13:46:43;16.58;77.18
66740;DHT22;53653;52.188;8.602;2023-08-31T13:49:08;16.55;77.99
66740;DHT22;53653;52.188;8.602;2023-08-31T13:51:34;16.49;78.18
66740;DHT22;53653;52.188;8.602;2023-08-31T13:54:01;16.45;79.28
66740;DHT22;53653;52.188;8.602;2023-08-31T13:56:28;16.44;79.50
66740;DHT22;53653;52.188;8.602;2023-08-31T13:58:54;16.26;78.88
66740;DHT22;53653;52.188;8.602;2023-08-31T14:01:19;16.21;80.41
66740;DHT22;53653;52.188;8.602;2023-08-31T14:03:45;16.25;80.47
66740;DHT22;53653;52.188;8.602;2023-08-31T14:06:10;16.38;80.83
66740;DHT22;53653;52.188;8.602;2023-08-31T14:08:36;16.58;80.60
66740;DHT22;53653;52.188;8.602;2023-08-31T14:11:02;16.83;78.91
66740;DHT22;53653;52.188;8.602;2023-08-31T14:13:28;17.18;78.26
66740;DHT22;53653;52.188;8.602;2023-08-31T14:15:53;17.44;74.51
66740;DHT22;53653;52.188;8.602;2023-08-31T14:18:19;17.61;74.14
66740;DHT22;53653;52.188;8.602;2023-08-31T14:20:44;17.85;72.13
66740;DHT22;53653;52.188;8.602;2023-08-31T14:23:10;17.86;69.71
66740;DHT22;53653;52.188;8.602;2023-08-31T14:25:36;17.76;69.22
66740;DHT22;53653;52.188;8.602;2023-08-31T14:28:04;17.65;67.50
66740;DHT22;53653;52.188;8.602;2023-08-31T14:30:30;17.49;67.37
66740;DHT22;53653;52.188;8.602;2023-08-31T14:32:56;17.54;67.93
66740;DHT22;53653;52.188;8.602;2023-08-31T14:35:22;17.41;66.57
66740;DHT22;53653;52.188;8.602;2023-08-31T14:37:48;17.38;67.10
66740;DHT22;53653;52.188;8.602;2023-08-31T14:40:13;17.42;67.28
66740;DHT22;53653;52.188;8.602;2023-08-31T14:42:40;17.39;67.21
66740;DHT22;53653;52.188;8.602;2023-08-31T14:45:06;17.38;67.99
66740;DHT22;53653;52.188;8.602;2023-08-31T14:47:32;17.39;68.16
66740;DHT22;53653;52.188;8.602;2023-08-31T14:49:57;17.37;68.16
66740;DHT22;53653;52.188;8.602;2023-08-31T14:52:23;17.37;68.67
66740;DHT22;53653;52.188;8.602;2023-08-31T14:54:48;17.28;69.03
66740;DHT22;53653;52.188;8.602;2023-08-31T14:57:14;17.27;69.20
66740;DHT22;53653;52.188;8.602;2023-08-31T14:59:39;17.17;69.77
66740;DHT22;53653;52.188;8.602;2023-08-31T15:02:05;17.18;69.92
66740;DHT22;53653;52.188;8.602;2023-08-31T15:04:32;17.17;70.74
66740;DHT22;53653;52.188;8.602;2023-08-31T15:06:57;17.10;71.39
66740;DHT22;53653;52.188;8.602;2023-08-31T15:09:23;17.11;71.44
66740;DHT22;53653;52.188;8.602;2023-08-31T15:11:49;17.08;72.48
66740;DHT22;53653;52.188;8.602;2023-08-31T15:14:14;17.02;72.82
66740;DHT22;53653;52.188;8.602;2023-08-31T15:16:40;16.99;73.31
66740;DHT22;53653;52.188;8.602;2023-08-31T15:19:06;17.02;73.90
66740;DHT22;53653;52.188;8.602;2023-08-31T15:21:34;17.13;74.65
66740;DHT22;53653;52.188;8.602;2023-08-31T15:23:59;17.52;75.43
66740;DHT22;53653;52.188;8.602;2023-08-31T15:26:24;17.69;73.10
66740;DHT22;53653;52.188;8.602;2023-08-31T15:28:51;17.65;71.16
66740;DHT22;53653;52.188;8.602;2023-08-31T15:31:16;17.62;71.80
66740;DHT22;53653;52.188;8.602;2023-08-31T15:33:42;17.56;73.16
66740;DHT22;53653;52.188;8.602;2023-08-31T15:36:09;17.55;71.84
66740;DHT22;53653;52.188;8.602;2023-08-31T15:38:36;17.41;70.26
66740;DHT22;53653;52.188;8.602;2023-08-31T15:41:04;17.28;71.03
66740;DHT22;53653;52.188;8.602;2023-08-31T15:43:31;17.44;71.11
66740;DHT22;53653;52.188;8.602;2023-08-31T15:46:01;17.48;71.14
66740;DHT22;53653;52.188;8.602;2023-08-31T15:48:27;17.49;70.38
66740;DHT22;53653;52.188;8.602;2023-08-31T15:50:57;17.39;69.79